Time;durP1;ratioP1;P1;durP2;ratioP2;P2;SDS_P1;SDS_P2;PMS_P1;PMS_P2;Temp;Humidity;BMP_temperature;BMP_pressure;BME280_temperature;BME280_humidity;BME280_pressure;Samples;Min_cycle;Max_cycle;Signal;HPM_P1;HPM_P2
2024/02/19 00:00:19;;;;;;;1.77;0.83;;;10.30;99.90;;;;;;4964395;28;20171;-85
2024/02/19 00:02:44;;;;;;;0.90;0.73;;;10.90;99.90;;;;;;4958150;28;20249;-85
2024/02/19 00:05:10;;;;;;;1.00;0.90;;;11.10;99.90;;;;;;4951636;28;20232;-87
2024/02/19 00:07:35;;;;;;;0.90;0.80;;;10.90;99.90;;;;;;4945136;29;20200;-86
2024/02/19 00:10:02;;;;;;;0.80;0.70;;;10.70;99.90;;;;;;4950301;28;20199;-86
2024/02/19 00:12:27;;;;;;;0.80;0.60;;;10.60;99.90;;;;;;4965068;28;20196;-86
2024/02/19 00:14:53;;;;;;;0.70;0.70;;;10.80;99.90;;;;;;4932109;28;20202;-87
2024/02/19 00:17:19;;;;;;;0.80;0.70;;;10.60;99.90;;;;;;4943396;28;20613;-86
2024/02/19 00:19:45;;;;;;;0.80;0.68;;;10.30;99.90;;;;;;4944496;29;20191;-85
2024/02/19 00:22:10;;;;;;;1.20;0.80;;;10.50;99.90;;;;;;4942064;28;20286;-85
2024/02/19 00:24:38;;;;;;;0.73;0.60;;;10.80;99.90;;;;;;4943367;28;20622;-88
2024/02/19 00:27:04;;;;;;;0.95;0.65;;;10.60;99.90;;;;;;4942570;29;20668;-85
2024/02/19 00:29:30;;;;;;;0.70;0.50;;;10.80;99.90;;;;;;4921863;28;20191;-86
2024/02/19 00:31:58;;;;;;;0.60;0.60;;;10.50;99.90;;;;;;4946770;28;20536;-86
2024/02/19 00:34:23;;;;;;;0.70;0.60;;;10.30;99.90;;;;;;4944009;28;20592;-87
2024/02/19 00:36:50;;;;;;;1.17;0.70;;;10.50;99.90;;;;;;4942497;29;20296;-86
2024/02/19 00:39:15;;;;;;;0.65;0.60;;;10.70;99.90;;;;;;4938438;28;20560;-87
2024/02/19 00:41:41;;;;;;;0.83;0.70;;;10.90;99.90;;;;;;4937761;29;20198;-86
2024/02/19 00:44:06;;;;;;;0.90;0.80;;;11.00;99.90;;;;;;4939266;28;20218;-86
2024/02/19 00:46:32;;;;;;;0.73;0.57;;;11.20;99.90;;;;;;4938963;28;20205;-86
2024/02/19 00:48:57;;;;;;;0.70;0.70;;;10.50;99.90;;;;;;4949006;28;20190;-86
2024/02/19 00:51:23;;;;;;;0.70;0.60;;;10.80;99.90;;;;;;4960301;28;20206;-86
2024/02/19 00:53:50;;;;;;;0.60;0.50;;;11.00;99.90;;;;;;4975375;28;20184;-86
2024/02/19 00:56:15;;;;;;;0.70;0.50;;;10.80;99.90;;;;;;4949340;28;20479;-86
2024/02/19 00:58:41;;;;;;;0.63;0.63;;;10.60;99.90;;;;;;4938055;28;20288;-86
2024/02/19 01:01:06;;;;;;;0.60;0.50;;;10.80;99.90;;;;;;4941526;29;20734;-86
2024/02/19 01:03:32;;;;;;;0.60;0.50;;;10.70;99.90;;;;;;4942435;28;20242;-86
2024/02/19 01:05:58;;;;;;;0.60;0.50;;;12.00;99.90;;;;;;4941031;28;20264;-86
2024/02/19 01:08:23;;;;;;;1.30;0.50;;;11.10;99.90;;;;;;4941197;28;20203;-86
2024/02/19 01:10:49;;;;;;;0.60;0.50;;;11.20;99.90;;;;;;4950303;28;20188;-86
2024/02/19 01:13:16;;;;;;;0.60;0.47;;;11.00;99.90;;;;;;4942270;29;20533;-86
2024/02/19 01:15:41;;;;;;;0.90;0.50;;;11.00;99.90;;;;;;4940206;28;20204;-86
2024/02/19 01:18:07;;;;;;;0.60;0.50;;;11.00;99.90;;;;;;4938984;29;20214;-84
2024/02/19 01:20:32;;;;;;;1.90;0.50;;;10.90;99.90;;;;;;4960895;28;20188;-84
2024/02/19 01:22:58;;;;;;;0.90;0.50;;;11.00;99.90;;;;;;4943195;28;20184;-84
2024/02/19 01:25:24;;;;;;;0.60;0.50;;;11.00;99.90;;;;;;4956289;28;20219;-84
2024/02/19 01:27:50;;;;;;;1.00;0.50;;;11.00;99.90;;;;;;4943058;29;20192;-84
2024/02/19 01:30:17;;;;;;;0.60;0.50;;;11.30;99.90;;;;;;4945346;28;20196;-84
2024/02/19 01:32:42;;;;;;;0.73;0.50;;;10.70;99.90;;;;;;4942473;28;20180;-84
2024/02/19 01:35:08;;;;;;;0.90;0.70;;;10.80;99.90;;;;;;4941699;29;20218;-84
2024/02/19 01:37:35;;;;;;;0.70;0.50;;;10.80;99.90;;;;;;4937118;28;20194;-84
2024/02/19 01:40:09;;;;;;;0.60;0.50;;;10.80;99.90;;;;;;4946393;28;20456;-84
2024/02/19 01:42:35;;;;;;;0.63;0.60;;;11.00;99.90;;;;;;4944789;28;20179;-84
2024/02/19 01:45:07;;;;;;;1.02;0.90;;;10.80;99.90;;;;;;4953318;28;20224;-84
2024/02/19 01:47:34;;;;;;;0.65;0.60;;;11.00;99.90;;;;;;4955592;28;20256;-84
2024/02/19 01:50:00;;;;;;;0.60;0.40;;;11.20;99.90;;;;;;4959217;29;20210;-84
2024/02/19 01:52:26;;;;;;;0.60;0.60;;;10.80;99.90;;;;;;4943939;28;20187;-84
2024/02/19 01:54:52;;;;;;;0.60;0.50;;;10.90;99.90;;;;;;4941270;28;20192;-84
2024/02/19 01:57:19;;;;;;;1.67;0.60;;;10.90;99.90;;;;;;4923870;28;20594;-83
2024/02/19 01:59:47;;;;;;;0.70;0.55;;;10.70;99.90;;;;;;4939471;29;20183;-84
2024/02/19 02:02:13;;;;;;;0.60;0.50;;;11.30;99.90;;;;;;4940023;29;20672;-83
2024/02/19 02:04:39;;;;;;;0.57;0.40;;;10.80;99.90;;;;;;4955829;28;20218;-84
2024/02/19 02:07:05;;;;;;;0.70;0.60;;;10.60;99.90;;;;;;4941802;28;20191;-84
2024/02/19 02:09:31;;;;;;;0.70;0.52;;;10.70;99.90;;;;;;4941229;28;20450;-84
2024/02/19 02:11:56;;;;;;;0.77;0.50;;;11.00;99.90;;;;;;4941536;28;20280;-84
2024/02/19 02:14:22;;;;;;;1.10;0.63;;;11.20;99.90;;;;;;4939356;29;20219;-84
2024/02/19 02:16:47;;;;;;;1.03;0.63;;;11.00;99.90;;;;;;4940664;29;20652;-83
2024/02/19 02:19:15;;;;;;;1.97;0.53;;;11.10;99.90;;;;;;4944118;28;20276;-85
2024/02/19 02:21:41;;;;;;;0.70;0.70;;;10.60;99.90;;;;;;4940178;28;20285;-84
2024/02/19 02:24:07;;;;;;;1.20;0.63;;;11.00;99.90;;;;;;4940792;29;20215;-84
2024/02/19 02:26:38;;;;;;;0.60;0.50;;;10.70;99.90;;;;;;4944959;28;20227;-84
2024/02/19 02:29:03;;;;;;;0.60;0.50;;;10.90;99.90;;;;;;4960863;28;20181;-83
2024/02/19 02:31:29;;;;;;;0.80;0.60;;;10.80;99.90;;;;;;4953073;28;20215;-84
2024/02/19 02:33:55;;;;;;;0.60;0.50;;;11.60;99.90;;;;;;4957123;28;20202;-84
2024/02/19 02:36:21;;;;;;;2.20;0.70;;;10.80;99.90;;;;;;4939831;28;20677;-83
2024/02/19 02:38:47;;;;;;;0.77;0.50;;;10.40;99.90;;;;;;4955104;28;20195;-83
2024/02/19 02:41:14;;;;;;;0.70;0.60;;;10.80;99.90;;;;;;4938121;29;20978;-83
2024/02/19 02:43:39;;;;;;;0.60;0.60;;;10.70;99.90;;;;;;4940312;28;20220;-83
2024/02/19 02:46:05;;;;;;;0.70;0.50;;;10.70;99.90;;;;;;4940288;29;20269;-84
2024/02/19 02:48:31;;;;;;;0.60;0.60;;;10.50;99.90;;;;;;4938148;28;20209;-83
2024/02/19 02:50:56;;;;;;;0.60;0.50;;;11.00;99.90;;;;;;4946937;28;20564;-83
2024/02/19 02:53:22;;;;;;;0.60;0.50;;;11.10;99.90;;;;;;4938266;28;20323;-83
2024/02/19 02:55:48;;;;;;;0.83;0.60;;;10.60;99.90;;;;;;4939516;28;20227;-84
2024/02/19 02:58:13;;;;;;;0.80;0.60;;;11.00;99.90;;;;;;4942109;29;20440;-84
2024/02/19 03:00:39;;;;;;;2.10;1.20;;;11.10;99.90;;;;;;4950499;28;20440;-84
2024/02/19 03:03:04;;;;;;;0.60;0.50;;;10.90;99.90;;;;;;4949705;29;20183;-84
2024/02/19 03:05:30;;;;;;;0.80;0.50;;;11.10;99.90;;;;;;4941447;28;20741;-85
2024/02/19 03:07:55;;;;;;;0.60;0.57;;;10.80;99.90;;;;;;4941115;28;20184;-84
2024/02/19 03:10:21;;;;;;;0.90;0.70;;;10.50;99.90;;;;;;4940250;28;20286;-84
2024/02/19 03:12:46;;;;;;;0.70;0.70;;;11.20;99.90;;;;;;4945010;28;20191;-84
2024/02/19 03:15:12;;;;;;;0.80;0.80;;;10.70;99.90;;;;;;4943219;28;20836;-85
2024/02/19 03:17:38;;;;;;;0.80;0.80;;;10.70;99.90;;;;;;4943945;28;20195;-84
2024/02/19 03:20:11;;;;;;;1.13;0.70;;;10.60;99.90;;;;;;4944404;29;20449;-84
2024/02/19 03:22:38;;;;;;;1.08;0.80;;;10.50;99.90;;;;;;4942724;28;20674;-84
2024/02/19 03:25:04;;;;;;;1.38;0.90;;;10.90;99.90;;;;;;4946585;28;20730;-84
2024/02/19 03:27:30;;;;;;;1.90;1.20;;;10.60;99.90;;;;;;4942586;28;20254;-85
2024/02/19 03:29:55;;;;;;;1.90;1.20;;;10.50;99.90;;;;;;4939150;28;20720;-85
2024/02/19 03:32:21;;;;;;;2.03;1.17;;;10.50;99.90;;;;;;4928213;28;20286;-83
2024/02/19 03:34:47;;;;;;;1.20;1.10;;;10.50;99.90;;;;;;4944201;28;20646;-83
2024/02/19 03:37:15;;;;;;;1.30;1.10;;;11.00;99.90;;;;;;4944813;28;20525;-83
2024/02/19 03:39:40;;;;;;;1.55;0.80;;;10.50;99.90;;;;;;4931110;28;20224;-83
2024/02/19 03:42:06;;;;;;;1.07;1.07;;;10.90;99.90;;;;;;4940377;28;20198;-83
2024/02/19 03:44:32;;;;;;;2.43;1.30;;;10.80;99.90;;;;;;4945953;28;20224;-84
2024/02/19 03:46:58;;;;;;;1.20;1.00;;;10.90;99.90;;;;;;4930203;29;20219;-83
2024/02/19 03:49:25;;;;;;;2.13;1.00;;;10.40;99.90;;;;;;4947556;29;20258;-84
2024/02/19 03:51:50;;;;;;;1.00;0.90;;;11.00;99.90;;;;;;4952657;29;20732;-84
2024/02/19 03:54:16;;;;;;;1.30;1.00;;;10.80;99.90;;;;;;4963384;28;20230;-84
2024/02/19 03:56:42;;;;;;;1.47;1.27;;;10.50;99.90;;;;;;4960302;28;20690;-83
2024/02/19 03:59:07;;;;;;;1.30;1.20;;;10.50;99.90;;;;;;4941644;29;20496;-83
2024/02/19 04:01:33;;;;;;;1.87;1.30;;;9.90;99.90;;;;;;4943370;28;20187;-83
2024/02/19 04:03:58;;;;;;;1.53;1.00;;;11.10;99.90;;;;;;4940890;29;20576;-84
2024/02/19 04:06:24;;;;;;;1.47;1.23;;;10.70;99.90;;;;;;4948685;28;20298;-84
2024/02/19 04:08:49;;;;;;;1.73;1.30;;;10.90;99.90;;;;;;4940774;28;20195;-84
2024/02/19 04:11:18;;;;;;;1.50;1.40;;;10.60;99.90;;;;;;4942221;29;20181;-84
2024/02/19 04:13:44;;;;;;;2.38;1.45;;;11.10;99.90;;;;;;4940483;28;20187;-84
2024/02/19 04:16:10;;;;;;;3.33;1.63;;;10.70;99.90;;;;;;4943263;29;20223;-85
2024/02/19 04:18:36;;;;;;;2.50;1.60;;;10.60;99.90;;;;;;4940023;28;20221;-84
2024/02/19 04:21:01;;;;;;;1.52;0.93;;;10.90;99.90;;;;;;4944937;28;20477;-85
2024/02/19 04:23:27;;;;;;;1.07;0.90;;;10.60;99.90;;;;;;4952774;28;20329;-83
2024/02/19 04:25:52;;;;;;;1.13;1.03;;;10.80;99.90;;;;;;4947328;28;20211;-84
2024/02/19 04:28:18;;;;;;;1.90;1.40;;;10.80;99.90;;;;;;4941151;29;20194;-84
2024/02/19 05:58:40;;;;;;;3.03;2.72;;;9.30;99.90;;;;;;4950553;28;20227;-89
2024/02/19 06:01:07;;;;;;;3.60;3.20;;;11.00;99.90;;;;;;4943573;28;20549;-87
2024/02/19 06:03:34;;;;;;;4.63;3.30;;;9.50;99.90;;;;;;4943985;28;20192;-88
2024/02/19 06:47:36;;;;;;;4.43;3.33;;;10.60;99.90;;;;;;598507;23;20626;-96
2024/02/19 06:50:13;;;;;;;4.47;3.20;;;10.80;99.90;;;;;;4940978;28;20211;-88
2024/02/19 06:53:08;;;;;;;;;;;;;;;;;;;;;
2024/02/19 06:55:46;;;;;;;6.25;3.85;;;12.10;99.90;;;;;;4952175;28;20357;-88
2024/02/19 06:58:28;;;;;;;3.42;3.13;;;11.60;99.90;;;;;;4930256;29;20668;-87
2024/02/19 07:00:56;;;;;;;5.57;3.00;;;12.50;99.90;;;;;;4907246;29;20630;-88
2024/02/19 07:03:34;;;;;;;4.78;4.30;;;10.10;99.90;;;;;;4936540;29;20652;-88
2024/02/19 07:06:32;;;;;;;;;;;;;;;;;;;;;
2024/02/19 07:09:10;;;;;;;;;;;;;;;;;;;;;
2024/02/19 07:12:04;;;;;;;5.15;3.15;;;11.10;99.90;;;;;;4930706;29;20191;-89
2024/02/19 07:14:57;;;;;;;4.38;2.80;;;11.10;99.90;;;;;;4912157;29;20204;-89
2024/02/19 07:17:27;;;;;;;3.60;2.60;;;11.00;99.90;;;;;;4929973;29;20197;-88
2024/02/19 07:20:04;;;;;;;3.83;2.55;;;11.00;99.90;;;;;;4917318;29;20259;-88
2024/02/19 07:22:35;;;;;;;5.40;2.58;;;11.60;99.90;;;;;;4914881;29;20262;-89
2024/02/19 07:25:03;;;;;;;3.00;2.20;;;11.70;99.90;;;;;;4911908;29;20320;-89
2024/02/19 07:30:19;;;;;;;4.00;2.22;;;12.00;99.90;;;;;;4918256;29;20332;-87
2024/02/19 07:32:58;;;;;;;4.90;3.35;;;11.60;99.90;;;;;;4934057;29;20210;-88
2024/02/19 07:35:30;;;;;;;5.07;2.72;;;10.80;99.90;;;;;;4939302;29;20195;-89
2024/02/19 07:38:00;;;;;;;2.80;2.13;;;10.90;99.90;;;;;;4915691;28;20189;-89
2024/02/19 07:40:41;;;;;;;;;;;;;;;;;;;;;
2024/02/19 07:43:18;;;;;;;3.97;2.22;;;10.70;99.90;;;;;;4948853;29;20188;-88
2024/02/19 07:45:49;;;;;;;3.25;2.00;;;10.70;99.90;;;;;;4935601;29;20238;-88
2024/02/19 07:48:22;;;;;;;4.43;2.28;;;12.30;99.90;;;;;;4923446;29;20189;-88
2024/02/19 07:51:02;;;;;;;4.95;3.13;;;11.00;99.90;;;;;;4919647;29;20193;-89
2024/02/19 07:53:48;;;;;;;;;;;;;;;;;;;;;
2024/02/19 07:56:17;;;;;;;3.72;1.80;;;10.60;99.90;;;;;;4933726;29;20224;-88
2024/02/19 07:59:04;;;;;;;4.28;1.75;;;10.90;99.90;;;;;;4919744;29;20203;-87
2024/02/19 08:01:30;;;;;;;2.00;1.80;;;11.20;99.90;;;;;;4928859;29;20187;-88
2024/02/19 08:03:56;;;;;;;2.30;2.03;;;11.20;99.90;;;;;;4931194;29;20232;-87
2024/02/19 08:06:22;;;;;;;1.77;1.67;;;11.90;99.90;;;;;;4926430;29;20635;-88
2024/02/19 08:08:47;;;;;;;2.10;1.90;;;11.60;99.90;;;;;;4932945;29;20554;-87
2024/02/19 08:11:13;;;;;;;2.00;1.80;;;;;;;;;;4934229;29;20558;-87
2024/02/19 08:13:41;;;;;;;3.80;1.63;;;10.90;99.90;;;;;;4933927;29;20185;-87
2024/02/19 08:16:07;;;;;;;2.65;1.33;;;12.50;99.90;;;;;;4930353;29;20208;-87
2024/02/19 08:18:34;;;;;;;2.57;1.60;;;;;;;;;;4926631;29;20627;-86
2024/02/19 08:21:46;;;;;;;5.22;1.70;;;11.00;99.90;;;;;;4916950;29;20197;-88
2024/02/19 08:24:14;;;;;;;2.53;1.65;;;11.70;99.90;;;;;;4919799;29;20238;-88
2024/02/19 08:26:44;;;;;;;2.92;1.58;;;10.10;99.90;;;;;;4926623;29;20221;-88
2024/02/19 08:29:12;;;;;;;3.05;1.88;;;12.50;99.90;;;;;;4916184;29;20225;-87
2024/02/19 08:31:54;;;;;;;1.77;1.25;;;9.30;99.90;;;;;;4926552;29;20190;-87
2024/02/19 08:34:20;;;;;;;2.28;1.30;;;11.80;99.90;;;;;;4925175;29;20212;-88
2024/02/19 08:36:46;;;;;;;1.13;1.00;;;;;;;;;;4918766;29;20288;-88
2024/02/19 08:39:12;;;;;;;2.60;1.67;;;11.30;99.90;;;;;;4916015;29;20201;-88
2024/02/19 08:41:37;;;;;;;1.87;1.47;;;12.20;99.90;;;;;;4921088;29;20182;-87
2024/02/19 08:44:03;;;;;;;2.03;1.57;;;;;;;;;;4918019;29;20226;-89
2024/02/19 08:46:29;;;;;;;1.50;1.30;;;11.20;99.90;;;;;;4915538;29;20216;-88
2024/02/19 08:48:56;;;;;;;1.63;1.23;;;12.70;99.90;;;;;;4920819;29;20207;-88
2024/02/19 08:51:21;;;;;;;3.72;1.95;;;12.50;99.90;;;;;;4922274;29;20546;-89
2024/02/19 08:53:47;;;;;;;2.27;1.40;;;;;;;;;;4920078;29;20226;-88
2024/02/19 08:56:13;;;;;;;1.20;1.10;;;11.10;99.90;;;;;;4928328;29;21075;-90
2024/02/19 08:58:41;;;;;;;2.20;1.23;;;10.70;99.90;;;;;;4924380;29;20189;-90
2024/02/19 09:01:10;;;;;;;1.85;1.67;;;12.10;99.90;;;;;;4921478;29;20262;-90
2024/02/19 09:03:38;;;;;;;1.20;0.93;;;9.90;99.90;;;;;;4922987;29;20192;-90
2024/02/19 09:06:04;;;;;;;4.85;2.15;;;11.80;99.90;;;;;;4920601;29;20752;-90
2024/02/19 09:08:31;;;;;;;3.05;1.50;;;11.30;99.90;;;;;;4924236;29;20188;-89
2024/02/19 09:10:57;;;;;;;9.18;2.03;;;11.40;99.90;;;;;;4923393;29;20194;-89
2024/02/19 09:13:23;;;;;;;3.45;1.80;;;10.70;99.90;;;;;;4922162;29;20198;-90
2024/02/19 09:15:49;;;;;;;6.03;4.10;;;11.20;99.90;;;;;;4917895;29;20211;-89
2024/02/19 09:18:14;;;;;;;3.78;1.60;;;10.80;99.90;;;;;;4929144;29;20905;-87
2024/02/19 09:20:40;;;;;;;1.63;1.20;;;;;;;;;;4924601;29;20197;-90
2024/02/19 09:23:06;;;;;;;4.80;3.77;;;11.80;99.90;;;;;;4926353;29;20194;-88
2024/02/19 09:25:34;;;;;;;5.57;2.00;;;11.60;99.90;;;;;;4919086;29;20498;-90
2024/02/19 09:27:59;;;;;;;5.60;2.25;;;13.70;99.90;;;;;;4927050;29;20194;-88
2024/02/19 09:30:25;;;;;;;1.60;1.20;;;;;;;;;;4910401;29;20194;-88
2024/02/19 09:32:51;;;;;;;3.70;1.67;;;11.80;99.90;;;;;;4921033;29;20177;-90
2024/02/19 09:35:16;;;;;;;5.00;4.00;;;12.00;99.90;;;;;;4919095;29;20201;-89
2024/02/19 09:37:43;;;;;;;4.03;1.70;;;12.30;99.90;;;;;;4923176;29;20197;-88
2024/02/19 09:40:12;;;;;;;2.08;1.52;;;12.20;99.90;;;;;;4927432;29;20284;-87
2024/02/19 09:42:38;;;;;;;8.25;6.00;;;11.80;99.90;;;;;;4924442;29;20256;-88
2024/02/19 09:45:05;;;;;;;3.90;3.10;;;12.10;99.90;;;;;;4924438;29;20268;-90
2024/02/19 09:47:32;;;;;;;1.83;1.23;;;12.20;99.90;;;;;;4918824;29;20909;-88
2024/02/19 09:49:58;;;;;;;1.75;1.10;;;12.30;99.90;;;;;;4917989;29;20189;-90
2024/02/19 09:52:25;;;;;;;1.58;0.90;;;12.40;99.90;;;;;;4924831;29;20285;-91
2024/02/19 09:54:51;;;;;;;6.13;3.60;;;12.30;99.90;;;;;;4908050;29;20189;-90
2024/02/19 09:57:20;;;;;;;1.30;1.20;;;12.30;99.90;;;;;;4920558;29;20603;-89
2024/02/19 09:59:47;;;;;;;1.20;1.00;;;12.40;99.90;;;;;;4937437;29;20662;-88
2024/02/19 10:02:18;;;;;;;2.75;1.40;;;12.30;99.90;;;;;;4929911;29;20661;-89
2024/02/19 10:04:48;;;;;;;4.32;1.40;;;12.10;99.90;;;;;;4923549;29;20242;-90
2024/02/19 10:07:18;;;;;;;2.15;1.35;;;11.90;99.90;;;;;;4922636;29;20197;-90
2024/02/19 10:09:44;;;;;;;2.63;1.58;;;12.20;99.90;;;;;;4926059;29;20200;-89
2024/02/19 10:12:10;;;;;;;3.15;1.92;;;12.30;99.90;;;;;;4911556;29;20628;-90
2024/02/19 10:14:36;;;;;;;4.60;2.43;;;12.30;99.90;;;;;;4915595;29;20281;-90
2024/02/19 10:17:01;;;;;;;1.67;1.13;;;12.30;99.90;;;;;;4923892;29;20198;-89
2024/02/19 10:19:27;;;;;;;6.57;1.20;;;12.40;99.90;;;;;;4913033;29;20186;-91
2024/02/19 10:21:54;;;;;;;2.50;1.33;;;11.90;99.90;;;;;;4920459;29;20189;-90
2024/02/19 10:24:19;;;;;;;2.05;1.30;;;12.50;99.90;;;;;;4922002;29;20247;-89
2024/02/19 10:26:47;;;;;;;2.00;1.30;;;12.70;99.90;;;;;;4923354;29;20206;-89
2024/02/19 10:29:13;;;;;;;1.40;1.15;;;11.70;99.90;;;;;;4915709;29;20216;-90
2024/02/19 10:31:41;;;;;;;2.40;1.20;;;12.20;99.90;;;;;;4932827;29;20648;-88
2024/02/19 10:34:10;;;;;;;3.17;1.50;;;12.20;99.90;;;;;;4927205;29;20239;-88
2024/02/19 10:36:36;;;;;;;2.55;1.73;;;12.40;99.90;;;;;;4918426;29;20213;-90
2024/02/19 10:39:06;;;;;;;1.57;0.97;;;12.00;99.90;;;;;;4920014;29;20690;-88
2024/02/19 10:41:35;;;;;;;3.55;1.63;;;12.10;99.90;;;;;;4919851;29;20205;-89
2024/02/19 10:44:01;;;;;;;3.47;1.23;;;12.30;99.90;;;;;;4918413;29;20214;-88
2024/02/19 10:46:27;;;;;;;3.75;1.50;;;12.00;99.90;;;;;;4929418;29;20208;-88
2024/02/19 10:48:54;;;;;;;1.90;1.30;;;12.20;99.90;;;;;;4941302;29;20190;-89
2024/02/19 10:51:21;;;;;;;2.38;1.52;;;12.50;99.90;;;;;;4906808;29;20185;-89
2024/02/19 10:53:58;;;;;;;2.63;1.55;;;12.20;99.90;;;;;;4913885;29;20193;-87
2024/02/19 10:56:25;;;;;;;2.10;1.20;;;12.30;99.90;;;;;;4923851;29;20253;-88
2024/02/19 10:58:55;;;;;;;4.15;1.70;;;12.20;99.90;;;;;;4913418;29;20617;-89
2024/02/19 11:01:22;;;;;;;3.13;1.25;;;11.90;99.90;;;;;;4917698;29;20181;-89
2024/02/19 11:03:47;;;;;;;3.35;1.35;;;12.90;99.90;;;;;;4919784;29;20185;-89
2024/02/19 11:06:13;;;;;;;1.77;1.47;;;12.00;99.50;;;;;;4915953;29;20727;-89
2024/02/19 11:08:47;;;;;;;1.67;1.30;;;13.00;99.90;;;;;;4929196;29;20200;-89
2024/02/19 11:11:13;;;;;;;3.85;1.55;;;12.80;99.50;;;;;;4917528;29;20598;-89
2024/02/19 11:13:41;;;;;;;2.53;1.30;;;12.50;99.00;;;;;;4913855;29;20178;-90
2024/02/19 11:16:19;;;;;;;3.20;1.55;;;12.60;99.00;;;;;;4918511;29;20240;-88
2024/02/19 11:18:44;;;;;;;2.50;1.48;;;12.80;99.30;;;;;;4914808;29;20188;-90
2024/02/19 11:21:10;;;;;;;1.97;1.30;;;12.40;99.00;;;;;;4914863;29;20276;-89
2024/02/19 11:23:36;;;;;;;4.50;2.60;;;12.80;99.30;;;;;;4915477;29;20314;-89
2024/02/19 11:26:02;;;;;;;3.53;1.45;;;12.80;99.90;;;;;;4918486;29;20252;-88
2024/02/19 11:28:32;;;;;;;3.73;1.73;;;13.10;99.50;;;;;;4912327;29;20276;-88
2024/02/19 11:31:02;;;;;;;3.33;2.30;;;12.60;98.90;;;;;;4933909;29;20480;-90
2024/02/19 11:33:27;;;;;;;1.77;1.42;;;12.90;99.30;;;;;;4920194;29;20190;-89
2024/02/19 11:35:57;;;;;;;4.70;1.17;;;12.70;98.80;;;;;;4912015;29;20631;-90
2024/02/19 11:38:26;;;;;;;4.90;2.08;;;13.20;98.60;;;;;;4929695;29;20270;-88
2024/02/19 11:40:52;;;;;;;2.80;1.60;;;13.20;98.80;;;;;;4911951;29;20201;-89
2024/02/19 11:43:19;;;;;;;1.65;1.40;;;13.10;98.60;;;;;;4920495;29;20651;-89
2024/02/19 11:45:45;;;;;;;4.20;1.75;;;13.30;98.10;;;;;;4918060;29;20307;-89
2024/02/19 11:48:10;;;;;;;2.33;1.30;;;12.90;98.00;;;;;;4925077;29;20243;-88
2024/02/19 11:50:36;;;;;;;3.37;1.60;;;13.40;98.30;;;;;;4922689;29;20796;-89
2024/02/19 11:53:04;;;;;;;3.33;1.27;;;13.40;98.20;;;;;;4919326;29;20190;-89
2024/02/19 11:55:30;;;;;;;3.25;1.30;;;14.00;97.60;;;;;;4916793;29;20217;-89
2024/02/19 11:57:59;;;;;;;2.23;1.70;;;13.40;97.20;;;;;;4913848;29;20182;-89
2024/02/19 12:00:25;;;;;;;2.53;1.20;;;13.50;97.30;;;;;;4916527;29;20516;-90
2024/02/19 12:02:53;;;;;;;1.33;1.20;;;13.00;97.20;;;;;;4915779;29;20235;-89
2024/02/19 12:05:40;;;;;;;1.80;1.40;;;12.80;97.00;;;;;;4934886;29;20371;-88
2024/02/19 12:08:06;;;;;;;2.70;1.80;;;14.10;97.10;;;;;;4918354;29;20729;-89
2024/02/19 12:10:31;;;;;;;2.70;1.90;;;13.30;97.40;;;;;;4917262;29;20264;-89
2024/02/19 12:12:58;;;;;;;2.83;1.07;;;13.80;96.50;;;;;;4911416;29;20447;-89
2024/02/19 12:15:24;;;;;;;2.55;1.50;;;13.00;95.70;;;;;;4915430;29;20236;-89
2024/02/19 12:17:52;;;;;;;3.20;1.30;;;13.70;95.90;;;;;;4913877;29;20194;-89
2024/02/19 12:20:18;;;;;;;3.95;0.90;;;12.90;95.70;;;;;;4916887;29;20189;-87
2024/02/19 12:22:43;;;;;;;3.47;2.72;;;13.70;95.70;;;;;;4921463;29;20197;-87
2024/02/19 12:25:10;;;;;;;2.73;1.30;;;13.40;95.80;;;;;;4915771;29;20225;-88
2024/02/19 12:27:36;;;;;;;1.83;1.15;;;13.10;95.70;;;;;;4908115;29;20194;-89
2024/02/19 12:30:02;;;;;;;3.70;1.40;;;12.80;95.00;;;;;;4919066;29;20207;-89
2024/02/19 12:32:29;;;;;;;3.00;1.23;;;13.20;95.90;;;;;;4920270;29;20174;-89
2024/02/19 12:34:55;;;;;;;7.78;1.50;;;12.90;95.60;;;;;;4921493;29;20185;-89
2024/02/19 12:37:21;;;;;;;2.45;1.20;;;12.80;95.90;;;;;;4923711;29;20189;-88
2024/02/19 12:39:47;;;;;;;2.17;1.50;;;13.90;96.30;;;;;;4922767;29;20200;-90
2024/02/19 12:42:14;;;;;;;1.77;1.27;;;12.80;96.20;;;;;;4925744;29;20189;-88
2024/02/19 12:44:40;;;;;;;2.50;1.33;;;12.80;96.40;;;;;;4913862;29;20358;-89
2024/02/19 12:47:06;;;;;;;2.80;1.23;;;12.90;96.80;;;;;;4911051;29;20245;-89
2024/02/19 12:49:35;;;;;;;2.20;1.80;;;13.40;97.10;;;;;;4913687;29;20335;-92
2024/02/19 12:52:04;;;;;;;5.35;1.98;;;13.30;96.40;;;;;;4933607;29;20189;-89
2024/02/19 12:54:30;;;;;;;3.58;1.40;;;12.90;95.10;;;;;;4923424;29;20194;-89
2024/02/19 12:56:56;;;;;;;3.13;2.00;;;13.50;95.00;;;;;;4916964;29;20610;-89
2024/02/19 12:59:25;;;;;;;4.43;1.40;;;13.70;94.10;;;;;;4931427;29;20190;-89
2024/02/19 13:01:51;;;;;;;6.60;1.30;;;13.60;93.80;;;;;;4921642;29;20959;-89
2024/02/19 13:04:18;;;;;;;2.38;1.60;;;13.50;93.80;;;;;;4901013;29;20213;-89
2024/02/19 13:06:44;;;;;;;3.25;1.30;;;13.50;93.50;;;;;;4918054;29;20320;-89
2024/02/19 13:09:10;;;;;;;2.08;1.17;;;14.00;93.00;;;;;;4898723;29;20204;-88
2024/02/19 13:11:40;;;;;;;2.28;1.33;;;13.50;93.40;;;;;;4914481;29;20185;-89
2024/02/19 13:14:06;;;;;;;2.08;1.40;;;13.50;93.10;;;;;;4916243;29;20198;-88
2024/02/19 13:16:34;;;;;;;2.65;1.33;;;13.80;93.70;;;;;;4912836;29;20210;-89
2024/02/19 13:19:00;;;;;;;1.60;1.50;;;13.50;93.50;;;;;;4913144;29;20252;-88
2024/02/19 13:21:25;;;;;;;3.13;1.63;;;13.50;93.80;;;;;;4914512;29;20819;-88
2024/02/19 13:23:51;;;;;;;4.27;1.40;;;13.60;93.50;;;;;;4909235;29;20272;-89
2024/02/19 13:26:16;;;;;;;2.07;1.27;;;13.40;93.60;;;;;;4916455;29;20694;-87
2024/02/19 13:28:42;;;;;;;6.80;1.73;;;14.50;94.10;;;;;;4917620;29;20198;-88
2024/02/19 13:31:08;;;;;;;3.30;1.60;;;13.40;93.60;;;;;;4913718;29;20285;-88
2024/02/19 13:33:34;;;;;;;2.20;1.40;;;;;;;;;;4915629;29;20196;-89
2024/02/19 13:36:00;;;;;;;2.60;1.60;;;13.50;93.20;;;;;;4918290;29;20472;-89
2024/02/19 13:38:26;;;;;;;3.22;1.48;;;13.50;93.90;;;;;;4900193;29;20192;-89
2024/02/19 13:40:51;;;;;;;3.20;1.70;;;14.00;93.70;;;;;;4912514;29;20190;-88
2024/02/19 13:43:19;;;;;;;3.17;1.40;;;13.10;93.30;;;;;;4906369;29;20474;-89
2024/02/19 13:45:58;;;;;;;3.83;1.40;;;13.50;93.80;;;;;;4912886;29;20223;-89
2024/02/19 13:48:28;;;;;;;2.90;1.92;;;13.80;93.40;;;;;;4910832;29;20202;-88
2024/02/19 13:50:57;;;;;;;2.72;1.70;;;13.90;93.60;;;;;;4912180;29;20192;-89
2024/02/19 13:53:27;;;;;;;4.07;1.75;;;13.80;93.30;;;;;;4911263;29;20590;-88
2024/02/19 13:55:54;;;;;;;2.53;1.80;;;14.10;93.00;;;;;;4913399;29;20210;-88
2024/02/19 13:58:23;;;;;;;3.38;1.85;;;13.90;93.00;;;;;;4916667;29;20217;-88
2024/02/19 14:00:49;;;;;;;4.07;1.58;;;13.30;92.60;;;;;;4917639;29;20189;-87
2024/02/19 14:03:14;;;;;;;2.50;1.73;;;13.90;93.20;;;;;;4914861;29;20182;-89
2024/02/19 14:05:44;;;;;;;4.00;1.63;;;14.10;93.80;;;;;;4916783;29;20221;-90
2024/02/19 14:09:04;;;;;;;2.90;1.55;;;14.00;93.60;;;;;;4916871;29;20193;-90
2024/02/19 14:11:30;;;;;;;3.40;1.80;;;14.40;93.80;;;;;;4916677;29;20820;-89
2024/02/19 14:13:57;;;;;;;2.80;1.90;;;13.20;93.80;;;;;;4918172;29;20181;-88
2024/02/19 14:16:22;;;;;;;2.72;2.22;;;13.90;94.00;;;;;;4914468;29;20328;-89
2024/02/19 14:18:48;;;;;;;4.70;1.70;;;13.50;93.70;;;;;;4914385;29;20205;-89
2024/02/19 14:21:14;;;;;;;4.17;2.07;;;13.40;94.10;;;;;;4916189;29;20289;-89
2024/02/19 14:23:40;;;;;;;2.03;1.57;;;13.00;94.30;;;;;;4914205;29;20212;-89
2024/02/19 14:26:08;;;;;;;4.10;2.00;;;13.30;94.50;;;;;;4915997;29;20958;-89
2024/02/19 14:28:34;;;;;;;2.53;1.90;;;12.90;94.40;;;;;;4929856;29;20190;-90
2024/02/19 14:31:00;;;;;;;6.15;2.30;;;12.80;94.10;;;;;;4935039;29;20287;-89
2024/02/19 14:33:25;;;;;;;3.87;2.20;;;13.70;94.40;;;;;;4928475;29;20304;-88
2024/02/19 14:35:51;;;;;;;3.30;1.87;;;;;;;;;;4928944;29;20198;-89
2024/02/19 14:38:19;;;;;;;3.75;2.10;;;13.50;93.90;;;;;;4935626;29;20280;-89
2024/02/19 14:40:44;;;;;;;7.17;2.60;;;13.90;94.20;;;;;;4911394;29;20620;-88
2024/02/19 14:43:13;;;;;;;4.63;2.27;;;13.50;94.00;;;;;;4913620;29;20279;-89
2024/02/19 14:45:38;;;;;;;4.72;1.70;;;12.90;94.00;;;;;;4913059;29;20277;-88
2024/02/19 14:48:04;;;;;;;5.93;2.00;;;13.40;94.60;;;;;;4913068;29;20198;-88
2024/02/19 14:50:30;;;;;;;5.77;2.33;;;13.20;94.10;;;;;;4913579;29;20178;-89
2024/02/19 14:52:55;;;;;;;8.13;2.33;;;13.30;94.20;;;;;;4912548;29;20197;-89
2024/02/19 14:55:21;;;;;;;2.67;1.47;;;13.20;94.50;;;;;;4914506;29;20306;-89
2024/02/19 14:57:47;;;;;;;3.50;2.10;;;13.20;94.30;;;;;;4910132;29;20214;-89
2024/02/19 15:00:20;;;;;;;4.47;2.33;;;12.90;94.30;;;;;;4911668;29;20181;-89
2024/02/19 15:02:46;;;;;;;3.92;2.30;;;13.10;94.20;;;;;;4909083;29;20655;-89
2024/02/19 15:05:12;;;;;;;4.15;3.13;;;12.60;94.40;;;;;;4914674;29;20220;-88
2024/02/19 15:07:41;;;;;;;3.63;2.07;;;13.10;94.70;;;;;;4908006;29;20241;-88
2024/02/19 15:10:07;;;;;;;2.78;1.80;;;12.80;94.60;;;;;;4912469;29;20217;-88